LFRT 202200Z AUTO 03010KT 9999 OVC040 06/M00 Q1038

ElémentsDécodage
LFRT Station météo située sur l'aérodrome de SAINT-BRIEUC Armor
202200Z émis le 20 du mois à 22h00 UTC
AUTO Bulletin édité par un automate
03010KT vent du 030°, 10 noeuds
9999 visibilité horizontale supérieure à 10 Km
OVC040 couverture nuageuse totale (8/8) à 4000 pieds
06/M00 température 06°C, point de rosée 00°C
 soit une humidité relative de 65%
Q1038 la pression au niveau de la mer (QNH) est de 1038 hPa